sensor_id;sensor_type;location;lat;lon;timestamp;P1;durP1;ratioP1;P2;durP2;ratioP2
10667;SDS011;5382;42.136;24.796;2023-03-11T00:01:53;5.30;;;3.78;;
10667;SDS011;5382;42.136;24.796;2023-03-11T00:04:20;7.28;;;3.45;;
10667;SDS011;5382;42.136;24.796;2023-03-11T00:06:47;6.30;;;3.47;;
10667;SDS011;5382;42.136;24.796;2023-03-11T00:09:14;6.53;;;3.50;;
10667;SDS011;5382;42.136;24.796;2023-03-11T00:11:42;6.15;;;4.20;;
10667;SDS011;5382;42.136;24.796;2023-03-11T00:14:09;5.32;;;4.20;;
10667;SDS011;5382;42.136;24.796;2023-03-11T00:16:35;7.65;;;4.68;;
10667;SDS011;5382;42.136;24.796;2023-03-11T00:19:02;8.18;;;4.15;;
10667;SDS011;5382;42.136;24.796;2023-03-11T00:21:29;6.57;;;4.78;;
10667;SDS011;5382;42.136;24.796;2023-03-11T00:23:56;5.72;;;4.72;;
10667;SDS011;5382;42.136;24.796;2023-03-11T00:26:25;6.40;;;4.63;;
10667;SDS011;5382;42.136;24.796;2023-03-11T00:28:53;7.55;;;4.60;;
10667;SDS011;5382;42.136;24.796;2023-03-11T00:31:20;7.88;;;4.30;;
10667;SDS011;5382;42.136;24.796;2023-03-11T00:33:50;6.90;;;4.22;;
10667;SDS011;5382;42.136;24.796;2023-03-11T00:36:19;8.15;;;5.30;;
10667;SDS011;5382;42.136;24.796;2023-03-11T00:38:49;9.43;;;5.32;;
10667;SDS011;5382;42.136;24.796;2023-03-11T00:41:15;6.57;;;5.22;;
10667;SDS011;5382;42.136;24.796;2023-03-11T00:43:42;9.25;;;5.55;;
10667;SDS011;5382;42.136;24.796;2023-03-11T00:46:10;5.97;;;5.30;;
10667;SDS011;5382;42.136;24.796;2023-03-11T00:48:37;8.70;;;5.38;;
10667;SDS011;5382;42.136;24.796;2023-03-11T00:51:05;8.77;;;5.25;;
10667;SDS011;5382;42.136;24.796;2023-03-11T00:53:32;7.78;;;5.28;;
10667;SDS011;5382;42.136;24.796;2023-03-11T00:56:04;7.30;;;5.82;;
10667;SDS011;5382;42.136;24.796;2023-03-11T00:58:32;9.82;;;5.90;;
10667;SDS011;5382;42.136;24.796;2023-03-11T01:00:59;7.38;;;4.40;;
10667;SDS011;5382;42.136;24.796;2023-03-11T01:03:28;8.18;;;6.55;;
10667;SDS011;5382;42.136;24.796;2023-03-11T01:05:55;9.05;;;6.50;;
10667;SDS011;5382;42.136;24.796;2023-03-11T01:08:22;8.10;;;4.82;;
10667;SDS011;5382;42.136;24.796;2023-03-11T01:10:48;8.13;;;4.57;;
10667;SDS011;5382;42.136;24.796;2023-03-11T01:13:15;6.65;;;5.00;;
10667;SDS011;5382;42.136;24.796;2023-03-11T01:15:42;6.68;;;4.85;;
10667;SDS011;5382;42.136;24.796;2023-03-11T01:18:09;7.38;;;5.15;;
10667;SDS011;5382;42.136;24.796;2023-03-11T01:20:37;9.52;;;5.47;;
10667;SDS011;5382;42.136;24.796;2023-03-11T01:23:04;9.98;;;5.00;;
10667;SDS011;5382;42.136;24.796;2023-03-11T01:25:32;6.32;;;4.45;;
10667;SDS011;5382;42.136;24.796;2023-03-11T01:28:00;7.65;;;4.43;;
10667;SDS011;5382;42.136;24.796;2023-03-11T01:30:27;9.55;;;5.20;;
10667;SDS011;5382;42.136;24.796;2023-03-11T01:32:55;6.15;;;4.65;;
10667;SDS011;5382;42.136;24.796;2023-03-11T01:35:24;8.32;;;5.95;;
10667;SDS011;5382;42.136;24.796;2023-03-11T01:37:53;8.02;;;4.63;;
10667;SDS011;5382;42.136;24.796;2023-03-11T01:40:23;8.80;;;5.68;;
10667;SDS011;5382;42.136;24.796;2023-03-11T01:42:52;9.38;;;5.88;;
10667;SDS011;5382;42.136;24.796;2023-03-11T01:45:25;7.38;;;5.22;;
10667;SDS011;5382;42.136;24.796;2023-03-11T01:47:59;8.90;;;6.63;;
10667;SDS011;5382;42.136;24.796;2023-03-11T01:50:26;7.15;;;4.80;;
10667;SDS011;5382;42.136;24.796;2023-03-11T01:53:00;9.65;;;6.18;;
10667;SDS011;5382;42.136;24.796;2023-03-11T01:55:27;7.53;;;6.30;;
10667;SDS011;5382;42.136;24.796;2023-03-11T01:57:54;7.40;;;6.20;;
10667;SDS011;5382;42.136;24.796;2023-03-11T02:00:21;8.48;;;6.50;;
10667;SDS011;5382;42.136;24.796;2023-03-11T02:02:49;6.95;;;4.70;;
10667;SDS011;5382;42.136;24.796;2023-03-11T02:05:17;6.82;;;5.25;;
10667;SDS011;5382;42.136;24.796;2023-03-11T02:07:46;9.93;;;5.93;;
10667;SDS011;5382;42.136;24.796;2023-03-11T02:10:15;9.02;;;6.38;;
10667;SDS011;5382;42.136;24.796;2023-03-11T02:12:42;7.20;;;5.78;;
10667;SDS011;5382;42.136;24.796;2023-03-11T02:15:11;7.25;;;5.30;;
10667;SDS011;5382;42.136;24.796;2023-03-11T02:17:39;6.72;;;4.70;;
10667;SDS011;5382;42.136;24.796;2023-03-11T02:20:11;7.10;;;5.13;;
10667;SDS011;5382;42.136;24.796;2023-03-11T02:22:44;6.40;;;4.70;;
10667;SDS011;5382;42.136;24.796;2023-03-11T02:25:15;5.93;;;4.78;;
10667;SDS011;5382;42.136;24.796;2023-03-11T02:27:51;6.78;;;5.60;;
10667;SDS011;5382;42.136;24.796;2023-03-11T02:30:19;6.03;;;5.40;;
10667;SDS011;5382;42.136;24.796;2023-03-11T02:32:47;6.30;;;5.55;;
10667;SDS011;5382;42.136;24.796;2023-03-11T02:35:15;8.80;;;6.00;;
10667;SDS011;5382;42.136;24.796;2023-03-11T02:37:43;5.47;;;4.88;;
10667;SDS011;5382;42.136;24.796;2023-03-11T02:43:15;7.90;;;4.97;;
10667;SDS011;5382;42.136;24.796;2023-03-11T02:45:45;7.80;;;5.82;;
10667;SDS011;5382;42.136;24.796;2023-03-11T02:48:14;5.10;;;4.07;;
10667;SDS011;5382;42.136;24.796;2023-03-11T02:50:42;8.48;;;4.90;;
10667;SDS011;5382;42.136;24.796;2023-03-11T02:53:12;9.35;;;4.53;;
10667;SDS011;5382;42.136;24.796;2023-03-11T02:55:39;7.75;;;4.30;;
10667;SDS011;5382;42.136;24.796;2023-03-11T02:58:06;6.30;;;5.40;;
10667;SDS011;5382;42.136;24.796;2023-03-11T03:00:34;5.07;;;4.18;;
10667;SDS011;5382;42.136;24.796;2023-03-11T03:03:01;7.18;;;4.20;;
10667;SDS011;5382;42.136;24.796;2023-03-11T03:05:27;6.47;;;5.00;;
10667;SDS011;5382;42.136;24.796;2023-03-11T03:07:54;6.40;;;3.97;;
10667;SDS011;5382;42.136;24.796;2023-03-11T03:10:21;7.30;;;4.85;;
10667;SDS011;5382;42.136;24.796;2023-03-11T03:12:48;7.25;;;4.68;;
10667;SDS011;5382;42.136;24.796;2023-03-11T03:15:15;6.07;;;4.32;;
10667;SDS011;5382;42.136;24.796;2023-03-11T03:17:44;9.18;;;5.70;;
10667;SDS011;5382;42.136;24.796;2023-03-11T03:20:12;7.13;;;4.40;;
10667;SDS011;5382;42.136;24.796;2023-03-11T03:22:39;5.97;;;4.13;;
10667;SDS011;5382;42.136;24.796;2023-03-11T03:25:07;9.13;;;5.03;;
10667;SDS011;5382;42.136;24.796;2023-03-11T03:27:35;6.55;;;4.57;;
10667;SDS011;5382;42.136;24.796;2023-03-11T03:30:02;7.88;;;5.18;;
10667;SDS011;5382;42.136;24.796;2023-03-11T03:32:30;5.93;;;4.55;;
10667;SDS011;5382;42.136;24.796;2023-03-11T03:34:58;7.57;;;5.13;;
10667;SDS011;5382;42.136;24.796;2023-03-11T03:37:26;5.40;;;4.90;;
10667;SDS011;5382;42.136;24.796;2023-03-11T03:39:53;9.20;;;4.57;;
10667;SDS011;5382;42.136;24.796;2023-03-11T03:42:20;8.43;;;3.95;;
10667;SDS011;5382;42.136;24.796;2023-03-11T03:44:49;6.43;;;4.45;;
10667;SDS011;5382;42.136;24.796;2023-03-11T03:47:16;10.18;;;5.25;;
10667;SDS011;5382;42.136;24.796;2023-03-11T03:49:43;4.20;;;3.80;;
10667;SDS011;5382;42.136;24.796;2023-03-11T03:52:12;8.68;;;4.53;;
10667;SDS011;5382;42.136;24.796;2023-03-11T03:54:39;5.90;;;4.65;;
10667;SDS011;5382;42.136;24.796;2023-03-11T03:57:06;8.75;;;4.65;;
10667;SDS011;5382;42.136;24.796;2023-03-11T03:59:32;8.20;;;5.10;;
10667;SDS011;5382;42.136;24.796;2023-03-11T04:01:59;8.88;;;6.07;;
10667;SDS011;5382;42.136;24.796;2023-03-11T04:04:26;7.25;;;6.03;;
10667;SDS011;5382;42.136;24.796;2023-03-11T04:06:53;7.47;;;4.35;;
10667;SDS011;5382;42.136;24.796;2023-03-11T04:09:21;9.38;;;5.85;;
10667;SDS011;5382;42.136;24.796;2023-03-11T04:11:49;11.00;;;6.25;;
10667;SDS011;5382;42.136;24.796;2023-03-11T04:14:16;9.88;;;5.10;;
10667;SDS011;5382;42.136;24.796;2023-03-11T04:16:42;6.97;;;5.45;;
10667;SDS011;5382;42.136;24.796;2023-03-11T04:19:09;6.40;;;4.75;;
10667;SDS011;5382;42.136;24.796;2023-03-11T04:21:37;9.55;;;6.07;;
10667;SDS011;5382;42.136;24.796;2023-03-11T04:24:04;8.30;;;6.43;;
10667;SDS011;5382;42.136;24.796;2023-03-11T04:26:32;12.88;;;6.50;;
10667;SDS011;5382;42.136;24.796;2023-03-11T04:28:59;9.80;;;6.50;;
10667;SDS011;5382;42.136;24.796;2023-03-11T04:31:26;7.93;;;6.50;;
10667;SDS011;5382;42.136;24.796;2023-03-11T04:33:53;8.57;;;6.57;;
10667;SDS011;5382;42.136;24.796;2023-03-11T04:36:19;8.23;;;6.00;;
10667;SDS011;5382;42.136;24.796;2023-03-11T04:38:46;7.38;;;5.38;;
10667;SDS011;5382;42.136;24.796;2023-03-11T04:41:13;8.43;;;7.40;;
10667;SDS011;5382;42.136;24.796;2023-03-11T04:43:41;9.50;;;6.70;;
10667;SDS011;5382;42.136;24.796;2023-03-11T04:46:08;10.73;;;6.45;;
10667;SDS011;5382;42.136;24.796;2023-03-11T04:48:35;9.15;;;6.82;;
10667;SDS011;5382;42.136;24.796;2023-03-11T04:51:01;5.35;;;4.25;;
10667;SDS011;5382;42.136;24.796;2023-03-11T04:53:28;5.28;;;4.57;;
10667;SDS011;5382;42.136;24.796;2023-03-11T04:55:55;6.40;;;4.07;;
10667;SDS011;5382;42.136;24.796;2023-03-11T04:58:22;5.00;;;4.22;;
10667;SDS011;5382;42.136;24.796;2023-03-11T05:00:50;6.53;;;4.20;;
10667;SDS011;5382;42.136;24.796;2023-03-11T05:03:18;5.50;;;4.13;;
10667;SDS011;5382;42.136;24.796;2023-03-11T05:05:45;6.50;;;3.53;;
10667;SDS011;5382;42.136;24.796;2023-03-11T05:08:12;4.30;;;3.70;;
10667;SDS011;5382;42.136;24.796;2023-03-11T05:10:38;9.02;;;4.22;;
10667;SDS011;5382;42.136;24.796;2023-03-11T05:13:06;8.48;;;4.65;;
10667;SDS011;5382;42.136;24.796;2023-03-11T05:15:33;3.78;;;3.20;;
10667;SDS011;5382;42.136;24.796;2023-03-11T05:18:02;4.60;;;4.20;;
10667;SDS011;5382;42.136;24.796;2023-03-11T05:20:29;5.03;;;4.53;;
10667;SDS011;5382;42.136;24.796;2023-03-11T05:22:56;4.95;;;4.07;;
10667;SDS011;5382;42.136;24.796;2023-03-11T05:25:23;4.72;;;3.60;;
10667;SDS011;5382;42.136;24.796;2023-03-11T05:27:50;6.03;;;4.10;;
10667;SDS011;5382;42.136;24.796;2023-03-11T05:30:17;5.57;;;4.00;;
10667;SDS011;5382;42.136;24.796;2023-03-11T05:32:44;4.43;;;3.78;;
10667;SDS011;5382;42.136;24.796;2023-03-11T05:35:12;6.10;;;3.88;;
10667;SDS011;5382;42.136;24.796;2023-03-11T05:37:39;4.00;;;3.55;;
10667;SDS011;5382;42.136;24.796;2023-03-11T05:40:06;5.00;;;3.80;;
10667;SDS011;5382;42.136;24.796;2023-03-11T05:42:35;6.00;;;4.07;;
10667;SDS011;5382;42.136;24.796;2023-03-11T05:45:04;3.50;;;3.20;;
10667;SDS011;5382;42.136;24.796;2023-03-11T05:47:31;6.68;;;3.53;;
10667;SDS011;5382;42.136;24.796;2023-03-11T05:49:58;4.82;;;3.10;;
10667;SDS011;5382;42.136;24.796;2023-03-11T05:52:26;3.55;;;3.13;;
10667;SDS011;5382;42.136;24.796;2023-03-11T05:54:54;3.10;;;2.40;;
10667;SDS011;5382;42.136;24.796;2023-03-11T05:57:21;2.53;;;2.28;;
10667;SDS011;5382;42.136;24.796;2023-03-11T05:59:48;3.33;;;2.58;;
10667;SDS011;5382;42.136;24.796;2023-03-11T06:02:14;5.22;;;3.25;;
10667;SDS011;5382;42.136;24.796;2023-03-11T06:04:41;4.80;;;3.50;;
10667;SDS011;5382;42.136;24.796;2023-03-11T06:07:08;7.00;;;3.28;;
10667;SDS011;5382;42.136;24.796;2023-03-11T06:09:37;7.43;;;2.80;;
10667;SDS011;5382;42.136;24.796;2023-03-11T06:12:04;4.07;;;2.65;;
10667;SDS011;5382;42.136;24.796;2023-03-11T06:14:32;2.90;;;2.63;;
10667;SDS011;5382;42.136;24.796;2023-03-11T06:16:59;3.97;;;2.50;;
10667;SDS011;5382;42.136;24.796;2023-03-11T06:19:25;4.13;;;2.75;;
10667;SDS011;5382;42.136;24.796;2023-03-11T06:21:52;4.05;;;3.35;;
10667;SDS011;5382;42.136;24.796;2023-03-11T06:24:19;2.40;;;2.20;;
10667;SDS011;5382;42.136;24.796;2023-03-11T06:26:50;6.65;;;3.00;;
10667;SDS011;5382;42.136;24.796;2023-03-11T06:29:17;3.13;;;2.42;;
10667;SDS011;5382;42.136;24.796;2023-03-11T06:31:46;2.63;;;2.30;;
10667;SDS011;5382;42.136;24.796;2023-03-11T06:34:12;5.13;;;2.80;;
10667;SDS011;5382;42.136;24.796;2023-03-11T06:36:39;4.47;;;2.90;;
10667;SDS011;5382;42.136;24.796;2023-03-11T06:39:06;4.25;;;2.45;;
10667;SDS011;5382;42.136;24.796;2023-03-11T06:41:33;5.82;;;2.67;;
10667;SDS011;5382;42.136;24.796;2023-03-11T06:44:01;6.78;;;3.10;;
10667;SDS011;5382;42.136;24.796;2023-03-11T06:46:29;2.88;;;2.35;;
10667;SDS011;5382;42.136;24.796;2023-03-11T06:48:55;4.80;;;2.42;;
10667;SDS011;5382;42.136;24.796;2023-03-11T06:51:23;3.90;;;2.38;;
10667;SDS011;5382;42.136;24.796;2023-03-11T06:53:50;3.33;;;2.45;;
10667;SDS011;5382;42.136;24.796;2023-03-11T06:56:18;4.22;;;2.13;;
10667;SDS011;5382;42.136;24.796;2023-03-11T06:58:46;5.85;;;2.72;;
10667;SDS011;5382;42.136;24.796;2023-03-11T07:01:15;3.30;;;1.92;;
10667;SDS011;5382;42.136;24.796;2023-03-11T07:03:44;2.75;;;1.90;;
10667;SDS011;5382;42.136;24.796;2023-03-11T07:06:12;2.60;;;2.00;;
10667;SDS011;5382;42.136;24.796;2023-03-11T07:08:41;3.75;;;1.90;;
10667;SDS011;5382;42.136;24.796;2023-03-11T07:11:09;2.33;;;2.00;;
10667;SDS011;5382;42.136;24.796;2023-03-11T07:13:38;2.92;;;1.70;;
10667;SDS011;5382;42.136;24.796;2023-03-11T07:16:06;4.28;;;1.63;;
10667;SDS011;5382;42.136;24.796;2023-03-11T07:18:36;4.10;;;1.58;;
10667;SDS011;5382;42.136;24.796;2023-03-11T07:21:03;2.72;;;1.65;;
10667;SDS011;5382;42.136;24.796;2023-03-11T07:23:31;4.07;;;1.65;;
10667;SDS011;5382;42.136;24.796;2023-03-11T07:25:58;4.30;;;1.95;;
10667;SDS011;5382;42.136;24.796;2023-03-11T07:28:25;3.53;;;1.65;;
10667;SDS011;5382;42.136;24.796;2023-03-11T07:30:54;4.38;;;1.60;;
10667;SDS011;5382;42.136;24.796;2023-03-11T07:33:21;2.70;;;1.80;;
10667;SDS011;5382;42.136;24.796;2023-03-11T07:35:50;2.10;;;1.40;;
10667;SDS011;5382;42.136;24.796;2023-03-11T07:38:17;2.70;;;1.30;;
10667;SDS011;5382;42.136;24.796;2023-03-11T07:40:44;2.70;;;1.55;;
10667;SDS011;5382;42.136;24.796;2023-03-11T07:43:11;2.03;;;1.13;;
10667;SDS011;5382;42.136;24.796;2023-03-11T07:45:38;1.20;;;1.10;;
10667;SDS011;5382;42.136;24.796;2023-03-11T07:48:05;3.78;;;1.10;;
10667;SDS011;5382;42.136;24.796;2023-03-11T07:50:32;3.20;;;1.55;;
10667;SDS011;5382;42.136;24.796;2023-03-11T07:53:00;1.92;;;1.27;;
10667;SDS011;5382;42.136;24.796;2023-03-11T07:55:27;3.38;;;1.50;;
10667;SDS011;5382;42.136;24.796;2023-03-11T07:57:54;1.88;;;1.30;;
10667;SDS011;5382;42.136;24.796;2023-03-11T08:00:21;1.45;;;1.10;;
10667;SDS011;5382;42.136;24.796;2023-03-11T08:02:48;1.95;;;1.40;;
10667;SDS011;5382;42.136;24.796;2023-03-11T08:05:15;2.45;;;1.20;;
10667;SDS011;5382;42.136;24.796;2023-03-11T08:07:42;1.98;;;1.58;;
10667;SDS011;5382;42.136;24.796;2023-03-11T08:10:11;2.38;;;1.10;;
10667;SDS011;5382;42.136;24.796;2023-03-11T08:12:38;3.65;;;1.08;;
10667;SDS011;5382;42.136;24.796;2023-03-11T08:15:05;2.35;;;1.08;;
10667;SDS011;5382;42.136;24.796;2023-03-11T08:17:33;1.20;;;0.90;;
10667;SDS011;5382;42.136;24.796;2023-03-11T08:20:00;1.45;;;1.00;;
10667;SDS011;5382;42.136;24.796;2023-03-11T08:22:27;2.08;;;0.90;;
10667;SDS011;5382;42.136;24.796;2023-03-11T08:24:54;3.97;;;0.90;;
10667;SDS011;5382;42.136;24.796;2023-03-11T08:27:23;2.20;;;1.00;;
10667;SDS011;5382;42.136;24.796;2023-03-11T08:29:49;1.90;;;0.75;;
10667;SDS011;5382;42.136;24.796;2023-03-11T08:32:16;0.60;;;0.60;;
10667;SDS011;5382;42.136;24.796;2023-03-11T08:34:43;1.98;;;0.63;;
10667;SDS011;5382;42.136;24.796;2023-03-11T08:37:10;3.40;;;1.23;;
10667;SDS011;5382;42.136;24.796;2023-03-11T08:39:37;2.72;;;1.00;;
10667;SDS011;5382;42.136;24.796;2023-03-11T08:42:04;2.03;;;1.17;;
10667;SDS011;5382;42.136;24.796;2023-03-11T08:44:32;1.63;;;1.13;;
10667;SDS011;5382;42.136;24.796;2023-03-11T08:46:59;1.55;;;0.90;;
10667;SDS011;5382;42.136;24.796;2023-03-11T08:49:26;2.20;;;1.20;;
10667;SDS011;5382;42.136;24.796;2023-03-11T08:51:53;1.83;;;1.00;;
10667;SDS011;5382;42.136;24.796;2023-03-11T08:54:20;1.10;;;1.00;;
10667;SDS011;5382;42.136;24.796;2023-03-11T08:56:46;0.73;;;0.68;;
10667;SDS011;5382;42.136;24.796;2023-03-11T08:59:13;0.80;;;0.68;;
10667;SDS011;5382;42.136;24.796;2023-03-11T09:01:41;2.03;;;0.80;;
10667;SDS011;5382;42.136;24.796;2023-03-11T09:04:08;0.80;;;0.70;;
10667;SDS011;5382;42.136;24.796;2023-03-11T09:06:36;3.20;;;0.80;;
10667;SDS011;5382;42.136;24.796;2023-03-11T09:09:02;4.80;;;0.70;;
10667;SDS011;5382;42.136;24.796;2023-03-11T09:11:29;3.30;;;0.80;;
10667;SDS011;5382;42.136;24.796;2023-03-11T09:13:56;1.98;;;0.70;;
10667;SDS011;5382;42.136;24.796;2023-03-11T09:16:23;1.48;;;0.90;;
10667;SDS011;5382;42.136;24.796;2023-03-11T09:18:51;1.75;;;1.00;;
10667;SDS011;5382;42.136;24.796;2023-03-11T09:21:18;2.67;;;0.90;;
10667;SDS011;5382;42.136;24.796;2023-03-11T09:23:45;1.60;;;0.80;;
10667;SDS011;5382;42.136;24.796;2023-03-11T09:26:13;1.42;;;0.70;;
10667;SDS011;5382;42.136;24.796;2023-03-11T09:28:40;1.67;;;0.90;;
10667;SDS011;5382;42.136;24.796;2023-03-11T09:31:07;1.15;;;0.90;;
10667;SDS011;5382;42.136;24.796;2023-03-11T09:33:37;1.98;;;0.80;;
10667;SDS011;5382;42.136;24.796;2023-03-11T09:36:08;2.90;;;0.95;;
10667;SDS011;5382;42.136;24.796;2023-03-11T09:38:38;1.85;;;0.65;;
10667;SDS011;5382;42.136;24.796;2023-03-11T09:41:06;0.90;;;0.65;;
10667;SDS011;5382;42.136;24.796;2023-03-11T09:43:45;3.42;;;1.10;;
10667;SDS011;5382;42.136;24.796;2023-03-11T09:46:26;1.85;;;0.57;;
10667;SDS011;5382;42.136;24.796;2023-03-11T09:49:07;2.55;;;0.82;;
10667;SDS011;5382;42.136;24.796;2023-03-11T09:51:45;0.70;;;0.70;;
10667;SDS011;5382;42.136;24.796;2023-03-11T09:54:17;1.58;;;0.90;;
10667;SDS011;5382;42.136;24.796;2023-03-11T09:56:44;1.23;;;0.90;;
10667;SDS011;5382;42.136;24.796;2023-03-11T09:59:14;0.93;;;0.73;;
10667;SDS011;5382;42.136;24.796;2023-03-11T10:01:45;0.70;;;0.68;;
10667;SDS011;5382;42.136;24.796;2023-03-11T10:04:15;1.05;;;0.77;;
10667;SDS011;5382;42.136;24.796;2023-03-11T10:06:48;4.95;;;2.00;;
10667;SDS011;5382;42.136;24.796;2023-03-11T10:09:28;2.53;;;0.68;;
10667;SDS011;5382;42.136;24.796;2023-03-11T10:12:03;5.45;;;0.93;;
10667;SDS011;5382;42.136;24.796;2023-03-11T10:14:45;2.40;;;0.70;;
10667;SDS011;5382;42.136;24.796;2023-03-11T10:17:21;1.45;;;0.70;;
10667;SDS011;5382;42.136;24.796;2023-03-11T10:20:06;3.95;;;0.90;;
10667;SDS011;5382;42.136;24.796;2023-03-11T10:22:41;1.17;;;0.80;;
10667;SDS011;5382;42.136;24.796;2023-03-11T10:25:15;1.80;;;0.55;;
10667;SDS011;5382;42.136;24.796;2023-03-11T10:27:44;2.13;;;0.50;;
10667;SDS011;5382;42.136;24.796;2023-03-11T10:30:19;2.10;;;0.90;;
10667;SDS011;5382;42.136;24.796;2023-03-11T10:32:52;1.02;;;0.60;;
10667;SDS011;5382;42.136;24.796;2023-03-11T10:35:23;1.27;;;1.10;;
10667;SDS011;5382;42.136;24.796;2023-03-11T10:38:04;2.15;;;1.08;;
10667;SDS011;5382;42.136;24.796;2023-03-11T10:40:37;1.05;;;0.88;;
10667;SDS011;5382;42.136;24.796;2023-03-11T10:43:08;1.48;;;0.57;;
10667;SDS011;5382;42.136;24.796;2023-03-11T10:45:39;1.00;;;0.75;;
10667;SDS011;5382;42.136;24.796;2023-03-11T10:48:09;3.00;;;0.73;;
10667;SDS011;5382;42.136;24.796;2023-03-11T10:50:36;1.17;;;0.68;;
10667;SDS011;5382;42.136;24.796;2023-03-11T10:53:14;5.13;;;1.05;;
10667;SDS011;5382;42.136;24.796;2023-03-11T10:55:46;2.25;;;0.85;;
10667;SDS011;5382;42.136;24.796;2023-03-11T10:58:21;2.20;;;1.20;;
10667;SDS011;5382;42.136;24.796;2023-03-11T11:01:02;1.77;;;1.10;;
10667;SDS011;5382;42.136;24.796;2023-03-11T11:03:30;2.05;;;1.17;;
10667;SDS011;5382;42.136;24.796;2023-03-11T11:06:01;2.65;;;1.30;;
10667;SDS011;5382;42.136;24.796;2023-03-11T11:08:31;1.42;;;1.08;;
10667;SDS011;5382;42.136;24.796;2023-03-11T11:10:59;2.45;;;1.40;;
10667;SDS011;5382;42.136;24.796;2023-03-11T11:13:27;3.08;;;1.50;;
10667;SDS011;5382;42.136;24.796;2023-03-11T11:15:57;3.67;;;1.35;;
10667;SDS011;5382;42.136;24.796;2023-03-11T11:18:26;4.00;;;1.83;;
10667;SDS011;5382;42.136;24.796;2023-03-11T11:20:58;4.68;;;1.95;;
10667;SDS011;5382;42.136;24.796;2023-03-11T11:23:31;3.95;;;2.10;;
10667;SDS011;5382;42.136;24.796;2023-03-11T11:26:03;1.98;;;1.55;;
10667;SDS011;5382;42.136;24.796;2023-03-11T11:28:32;4.53;;;1.75;;
10667;SDS011;5382;42.136;24.796;2023-03-11T11:30:59;3.33;;;1.92;;
10667;SDS011;5382;42.136;24.796;2023-03-11T11:33:28;2.00;;;1.42;;
10667;SDS011;5382;42.136;24.796;2023-03-11T11:35:56;3.20;;;1.30;;
10667;SDS011;5382;42.136;24.796;2023-03-11T11:38:27;2.22;;;0.95;;
10667;SDS011;5382;42.136;24.796;2023-03-11T11:40:56;1.90;;;1.00;;
10667;SDS011;5382;42.136;24.796;2023-03-11T11:43:30;1.80;;;1.08;;
10667;SDS011;5382;42.136;24.796;2023-03-11T11:46:03;1.63;;;1.00;;
10667;SDS011;5382;42.136;24.796;2023-03-11T11:48:38;2.20;;;0.90;;
10667;SDS011;5382;42.136;24.796;2023-03-11T11:51:14;7.13;;;1.20;;
10667;SDS011;5382;42.136;24.796;2023-03-11T11:53:45;1.88;;;1.52;;
10667;SDS011;5382;42.136;24.796;2023-03-11T11:56:18;2.53;;;1.30;;
10667;SDS011;5382;42.136;24.796;2023-03-11T11:58:45;0.95;;;0.68;;
10667;SDS011;5382;42.136;24.796;2023-03-11T12:01:13;3.15;;;0.98;;
10667;SDS011;5382;42.136;24.796;2023-03-11T12:06:49;3.78;;;0.80;;
10667;SDS011;5382;42.136;24.796;2023-03-11T12:09:25;1.27;;;0.80;;
10667;SDS011;5382;42.136;24.796;2023-03-11T12:12:01;1.08;;;0.60;;
10667;SDS011;5382;42.136;24.796;2023-03-11T12:14:34;5.72;;;0.70;;
10667;SDS011;5382;42.136;24.796;2023-03-11T12:17:06;3.63;;;0.60;;
10667;SDS011;5382;42.136;24.796;2023-03-11T12:19:38;1.33;;;0.60;;
10667;SDS011;5382;42.136;24.796;2023-03-11T12:22:27;1.65;;;0.77;;
10667;SDS011;5382;42.136;24.796;2023-03-11T12:25:20;1.65;;;0.70;;
10667;SDS011;5382;42.136;24.796;2023-03-11T12:27:55;2.75;;;0.80;;
10667;SDS011;5382;42.136;24.796;2023-03-11T12:30:28;0.75;;;0.70;;
10667;SDS011;5382;42.136;24.796;2023-03-11T12:32:59;1.10;;;0.68;;
10667;SDS011;5382;42.136;24.796;2023-03-11T12:35:30;1.98;;;0.82;;
10667;SDS011;5382;42.136;24.796;2023-03-11T12:38:01;0.90;;;0.47;;
10667;SDS011;5382;42.136;24.796;2023-03-11T12:43:26;2.13;;;0.60;;
10667;SDS011;5382;42.136;24.796;2023-03-11T12:46:12;5.95;;;1.20;;
10667;SDS011;5382;42.136;24.796;2023-03-11T12:48:42;1.65;;;0.98;;
10667;SDS011;5382;42.136;24.796;2023-03-11T12:56:55;2.03;;;0.55;;
10667;SDS011;5382;42.136;24.796;2023-03-11T13:02:35;6.63;;;0.98;;
10667;SDS011;5382;42.136;24.796;2023-03-11T13:05:20;3.75;;;0.93;;
10667;SDS011;5382;42.136;24.796;2023-03-11T13:07:52;1.70;;;0.65;;
10667;SDS011;5382;42.136;24.796;2023-03-11T13:10:35;3.70;;;0.77;;
10667;SDS011;5382;42.136;24.796;2023-03-11T13:13:28;0.68;;;0.60;;
10667;SDS011;5382;42.136;24.796;2023-03-11T13:21:58;2.65;;;0.70;;
10667;SDS011;5382;42.136;24.796;2023-03-11T13:24:45;0.65;;;0.60;;
10667;SDS011;5382;42.136;24.796;2023-03-11T13:30:06;1.20;;;0.60;;
10667;SDS011;5382;42.136;24.796;2023-03-11T13:35:43;1.27;;;0.68;;
10667;SDS011;5382;42.136;24.796;2023-03-11T13:41:29;0.60;;;0.50;;
10667;SDS011;5382;42.136;24.796;2023-03-11T13:44:02;2.60;;;0.57;;
10667;SDS011;5382;42.136;24.796;2023-03-11T13:46:39;0.93;;;0.70;;
10667;SDS011;5382;42.136;24.796;2023-03-11T13:49:15;2.05;;;0.70;;
10667;SDS011;5382;42.136;24.796;2023-03-11T13:51:51;0.95;;;0.75;;
10667;SDS011;5382;42.136;24.796;2023-03-11T13:54:33;2.03;;;1.00;;
10667;SDS011;5382;42.136;24.796;2023-03-11T13:57:04;1.08;;;0.60;;
10667;SDS011;5382;42.136;24.796;2023-03-11T13:59:45;2.38;;;0.80;;
10667;SDS011;5382;42.136;24.796;2023-03-11T14:02:17;0.88;;;0.60;;
10667;SDS011;5382;42.136;24.796;2023-03-11T14:04:47;1.75;;;0.55;;
10667;SDS011;5382;42.136;24.796;2023-03-11T14:07:19;2.05;;;0.70;;
10667;SDS011;5382;42.136;24.796;2023-03-11T14:09:51;1.15;;;0.70;;
10667;SDS011;5382;42.136;24.796;2023-03-11T14:12:50;1.00;;;0.80;;
10667;SDS011;5382;42.136;24.796;2023-03-11T14:15:18;2.65;;;0.80;;
10667;SDS011;5382;42.136;24.796;2023-03-11T14:17:49;0.70;;;0.60;;
10667;SDS011;5382;42.136;24.796;2023-03-11T14:20:17;1.42;;;0.75;;
10667;SDS011;5382;42.136;24.796;2023-03-11T14:22:47;2.35;;;0.88;;
10667;SDS011;5382;42.136;24.796;2023-03-11T14:25:17;0.90;;;0.70;;
10667;SDS011;5382;42.136;24.796;2023-03-11T14:27:50;0.90;;;0.70;;
10667;SDS011;5382;42.136;24.796;2023-03-11T14:30:19;1.85;;;1.42;;
10667;SDS011;5382;42.136;24.796;2023-03-11T14:32:59;1.25;;;0.73;;
10667;SDS011;5382;42.136;24.796;2023-03-11T14:35:27;1.85;;;0.82;;
10667;SDS011;5382;42.136;24.796;2023-03-11T14:37:55;1.10;;;0.75;;
10667;SDS011;5382;42.136;24.796;2023-03-11T14:40:25;3.15;;;0.85;;
10667;SDS011;5382;42.136;24.796;2023-03-11T14:42:54;2.33;;;0.93;;
10667;SDS011;5382;42.136;24.796;2023-03-11T14:45:24;2.40;;;0.70;;
10667;SDS011;5382;42.136;24.796;2023-03-11T14:47:54;2.03;;;0.85;;
10667;SDS011;5382;42.136;24.796;2023-03-11T14:50:25;1.08;;;0.63;;
10667;SDS011;5382;42.136;24.796;2023-03-11T14:52:55;1.63;;;0.80;;
10667;SDS011;5382;42.136;24.796;2023-03-11T14:55:27;9.30;;;5.55;;
10667;SDS011;5382;42.136;24.796;2023-03-11T14:57:58;7.90;;;5.50;;
10667;SDS011;5382;42.136;24.796;2023-03-11T15:00:29;6.53;;;2.67;;
10667;SDS011;5382;42.136;24.796;2023-03-11T15:03:07;2.08;;;1.40;;
10667;SDS011;5382;42.136;24.796;2023-03-11T15:05:42;1.63;;;0.90;;
10667;SDS011;5382;42.136;24.796;2023-03-11T15:08:16;2.63;;;0.95;;
10667;SDS011;5382;42.136;24.796;2023-03-11T15:11:01;1.33;;;1.23;;
10667;SDS011;5382;42.136;24.796;2023-03-11T15:13:30;5.20;;;1.50;;
10667;SDS011;5382;42.136;24.796;2023-03-11T15:15:58;2.10;;;1.30;;
10667;SDS011;5382;42.136;24.796;2023-03-11T15:18:28;1.65;;;0.90;;
10667;SDS011;5382;42.136;24.796;2023-03-11T15:21:01;1.98;;;0.85;;
10667;SDS011;5382;42.136;24.796;2023-03-11T15:23:31;2.05;;;1.10;;
10667;SDS011;5382;42.136;24.796;2023-03-11T15:25:59;3.20;;;0.95;;
10667;SDS011;5382;42.136;24.796;2023-03-11T15:28:29;3.13;;;0.90;;
10667;SDS011;5382;42.136;24.796;2023-03-11T15:31:13;2.22;;;0.90;;
10667;SDS011;5382;42.136;24.796;2023-03-11T15:33:41;1.45;;;1.02;;
10667;SDS011;5382;42.136;24.796;2023-03-11T15:39:13;5.18;;;1.02;;